createdAt,value
2018-03-04T00:01:31.103Z,94.20
2018-03-04T00:03:58.554Z,101.17
2018-03-04T00:06:26.019Z,98.87
2018-03-04T00:08:53.468Z,95.00
2018-03-04T00:11:20.925Z,106.10
2018-03-04T00:13:48.370Z,92.70
2018-03-04T00:16:15.859Z,101.20
2018-03-04T00:18:43.306Z,106.07
2018-03-04T00:21:10.746Z,90.30
2018-03-04T00:23:38.207Z,97.50
2018-03-04T00:26:05.646Z,100.30
2018-03-04T00:28:33.081Z,96.50
2018-03-04T00:31:00.586Z,99.62
2018-03-04T00:33:28.286Z,90.00
2018-03-04T00:35:55.730Z,102.65
2018-03-04T00:38:23.224Z,93.37
2018-03-04T00:40:51.449Z,85.57
2018-03-04T00:43:18.964Z,88.85
2018-03-04T00:45:46.420Z,93.80
2018-03-04T00:48:13.854Z,88.53
2018-03-04T00:50:41.376Z,87.40
2018-03-04T00:53:08.848Z,93.60
2018-03-04T00:55:36.284Z,95.00
2018-03-04T00:58:03.748Z,81.27
2018-03-04T01:00:31.207Z,91.27
2018-03-04T01:02:58.643Z,74.73
2018-03-04T01:05:26.095Z,77.03
2018-03-04T01:07:53.545Z,81.43
2018-03-04T01:10:20.995Z,85.67
2018-03-04T01:12:48.435Z,80.73
2018-03-04T01:15:15.888Z,85.53
2018-03-04T01:17:43.416Z,82.00
2018-03-04T01:20:10.847Z,82.93
2018-03-04T01:22:38.291Z,80.37
2018-03-04T01:25:05.730Z,83.17
2018-03-04T01:27:33.164Z,89.30
2018-03-04T01:30:00.686Z,71.75
2018-03-04T01:32:28.136Z,80.87
2018-03-04T01:34:55.570Z,74.23
2018-03-04T01:37:23.029Z,78.67
2018-03-04T01:39:50.789Z,73.10
2018-03-04T01:42:18.229Z,80.60
2018-03-04T01:44:45.748Z,79.93
2018-03-04T01:47:13.186Z,70.37
2018-03-04T01:49:40.610Z,69.33
2018-03-04T01:52:08.067Z,70.80
2018-03-04T01:54:35.565Z,72.37
2018-03-04T01:57:02.994Z,74.33
2018-03-04T01:59:30.496Z,73.00
2018-03-04T02:01:57.935Z,74.80
2018-03-04T02:04:25.384Z,75.30
2018-03-04T02:06:52.825Z,77.63
2018-03-04T02:09:20.319Z,74.47
2018-03-04T02:11:47.809Z,70.00
2018-03-04T02:14:15.268Z,77.80
2018-03-04T02:16:42.695Z,88.70
2018-03-04T02:19:10.139Z,86.63
2018-03-04T02:21:37.602Z,75.83
2018-03-04T02:24:05.054Z,80.23
2018-03-04T02:26:32.514Z,76.97
2018-03-04T02:28:59.967Z,77.97
2018-03-04T02:31:27.407Z,79.93
2018-03-04T02:33:54.834Z,82.97
2018-03-04T02:36:22.369Z,75.37
2018-03-04T02:38:49.802Z,77.00
2018-03-04T02:41:17.237Z,77.10
2018-03-04T02:43:44.686Z,80.73
2018-03-04T02:46:12.122Z,71.53
2018-03-04T02:48:39.642Z,83.43
2018-03-04T02:51:07.102Z,80.63
2018-03-04T02:53:34.533Z,82.60
2018-03-04T02:56:01.979Z,70.40
2018-03-04T02:58:29.430Z,76.20
2018-03-04T03:00:56.923Z,69.43
2018-03-04T03:03:24.367Z,76.23
2018-03-04T03:05:51.868Z,74.47
2018-03-04T03:08:19.323Z,79.17
2018-03-04T03:10:46.861Z,80.90
2018-03-04T03:13:14.315Z,71.10
2018-03-04T03:15:41.757Z,72.50
2018-03-04T03:18:09.326Z,82.70
2018-03-04T03:20:36.770Z,71.93
2018-03-04T03:23:04.204Z,71.27
2018-03-04T03:25:31.643Z,77.27
2018-03-04T03:27:59.097Z,71.63
2018-03-04T03:30:26.539Z,78.77
2018-03-04T03:32:53.990Z,77.57
2018-03-04T03:35:21.456Z,70.78
2018-03-04T03:37:48.886Z,76.60
2018-03-04T03:40:16.322Z,86.40
2018-03-04T03:42:43.788Z,81.53
2018-03-04T03:45:11.233Z,79.70
2018-03-04T03:47:39.018Z,80.57
2018-03-04T03:50:06.477Z,83.87
2018-03-04T03:52:33.910Z,80.20
2018-03-04T03:55:01.358Z,75.87
2018-03-04T03:57:28.842Z,88.40
2018-03-04T03:59:56.277Z,88.67
2018-03-04T04:02:23.715Z,100.30
2018-03-04T04:04:51.159Z,95.03
2018-03-04T04:07:18.599Z,80.07
2018-03-04T04:09:46.035Z,93.10
2018-03-04T04:12:13.483Z,90.70
2018-03-04T04:14:40.956Z,87.70
2018-03-04T04:17:08.392Z,84.73
2018-03-04T04:19:35.839Z,78.30
2018-03-04T04:22:03.269Z,91.83
2018-03-04T04:24:30.712Z,89.50
2018-03-04T04:26:58.150Z,95.20
2018-03-04T04:29:25.590Z,83.03
2018-03-04T04:31:53.028Z,84.70
2018-03-04T04:34:20.486Z,89.87
2018-03-04T04:36:47.922Z,82.63
2018-03-04T04:39:15.666Z,93.73
2018-03-04T04:41:43.144Z,85.43
2018-03-04T04:44:10.578Z,85.03
2018-03-04T04:46:38.010Z,86.70
2018-03-04T04:49:05.457Z,88.83
2018-03-04T04:51:32.909Z,92.93
2018-03-04T04:54:00.353Z,100.67
2018-03-04T04:56:27.807Z,98.40
2018-03-04T04:58:55.287Z,95.97
2018-03-04T05:01:22.781Z,82.67
2018-03-04T05:03:50.231Z,84.00
2018-03-04T05:06:17.684Z,83.20
2018-03-04T05:08:45.219Z,86.70
2018-03-04T05:11:12.660Z,91.73
2018-03-04T05:13:40.106Z,85.27
2018-03-04T05:16:07.587Z,84.47
2018-03-04T05:18:35.039Z,77.20
2018-03-04T05:21:02.754Z,85.53
2018-03-04T05:23:30.236Z,83.07
2018-03-04T05:25:57.687Z,82.60
2018-03-04T05:28:25.115Z,84.70
2018-03-04T05:30:52.547Z,94.23
2018-03-04T05:33:19.996Z,77.20
2018-03-04T05:35:47.434Z,82.23
2018-03-04T05:38:14.906Z,79.83
2018-03-04T05:40:42.354Z,79.17
2018-03-04T05:43:09.785Z,81.57
2018-03-04T05:45:37.278Z,88.50
2018-03-04T05:48:04.782Z,95.37
2018-03-04T05:50:32.215Z,86.67
2018-03-04T05:52:59.651Z,79.80
2018-03-04T05:55:27.110Z,80.63
2018-03-04T05:57:54.565Z,102.13
2018-03-04T06:00:22.028Z,78.07
2018-03-04T06:02:49.475Z,89.27
2018-03-04T06:05:16.919Z,82.30
2018-03-04T06:07:44.353Z,87.63
2018-03-04T06:10:11.805Z,97.07
2018-03-04T06:12:40.131Z,96.47
2018-03-04T06:15:07.601Z,92.18
2018-03-04T06:17:35.048Z,95.27
2018-03-04T06:20:02.537Z,99.17
2018-03-04T06:22:30.060Z,99.03
2018-03-04T06:24:57.518Z,94.77
2018-03-04T06:27:24.954Z,99.47
2018-03-04T06:29:52.386Z,93.27
2018-03-04T06:32:19.836Z,94.27
2018-03-04T06:34:47.288Z,92.33
2018-03-04T06:37:14.766Z,77.63
2018-03-04T06:39:42.272Z,92.73
2018-03-04T06:42:09.728Z,82.03
2018-03-04T06:44:37.182Z,81.93
2018-03-04T06:47:04.629Z,81.10
2018-03-04T06:49:32.072Z,92.30
2018-03-04T06:51:59.513Z,90.73
2018-03-04T06:54:26.961Z,86.17
2018-03-04T06:56:54.399Z,93.50
2018-03-04T06:59:21.837Z,91.57
2018-03-04T07:01:49.301Z,94.30
2018-03-04T07:04:16.747Z,88.03
2018-03-04T07:06:44.177Z,88.60
2018-03-04T07:09:11.633Z,90.87
2018-03-04T07:11:39.071Z,80.00
2018-03-04T07:14:06.599Z,88.50
2018-03-04T07:16:34.107Z,91.30
2018-03-04T07:19:01.896Z,86.00
2018-03-04T07:21:29.349Z,82.70
2018-03-04T07:23:56.798Z,92.93
2018-03-04T07:26:24.223Z,88.73
2018-03-04T07:28:51.663Z,85.30
2018-03-04T07:31:19.114Z,83.80
2018-03-04T07:33:46.551Z,81.27
2018-03-04T07:36:14.098Z,82.43
2018-03-04T07:38:41.550Z,83.20
2018-03-04T07:41:08.999Z,86.30
2018-03-04T07:43:36.426Z,78.97
2018-03-04T07:46:03.869Z,79.83
2018-03-04T07:48:31.306Z,76.23
2018-03-04T07:50:58.748Z,87.53
2018-03-04T07:53:26.201Z,74.47
2018-03-04T07:55:53.649Z,85.67
2018-03-04T07:58:21.101Z,78.73
2018-03-04T08:00:48.551Z,88.00
2018-03-04T08:03:15.999Z,73.57
2018-03-04T08:05:43.482Z,82.10
2018-03-04T08:08:10.935Z,78.57
2018-03-04T08:10:38.475Z,78.50
2018-03-04T08:13:05.910Z,70.63
2018-03-04T08:15:33.419Z,76.43
2018-03-04T08:18:00.862Z,78.07
2018-03-04T08:20:28.300Z,84.83
2018-03-04T08:22:55.744Z,73.87
2018-03-04T08:25:36.307Z,74.73
2018-03-04T08:28:15.518Z,85.53
2018-03-04T08:30:42.991Z,70.90
2018-03-04T08:33:10.428Z,74.67
2018-03-04T08:35:37.964Z,70.18
2018-03-04T08:38:05.406Z,71.50
2018-03-04T08:40:32.854Z,81.13
2018-03-04T08:43:00.294Z,76.60
2018-03-04T08:45:27.738Z,81.97
2018-03-04T08:47:55.356Z,68.87
2018-03-04T08:50:22.810Z,75.83
2018-03-04T08:52:50.271Z,84.30
2018-03-04T08:55:17.732Z,66.53
2018-03-04T08:57:45.183Z,71.20
2018-03-04T09:00:12.642Z,65.20
2018-03-04T09:02:40.102Z,70.20
2018-03-04T09:05:07.566Z,70.43
2018-03-04T09:07:35.000Z,74.27
2018-03-04T09:10:02.452Z,70.93
2018-03-04T09:12:29.907Z,76.53
2018-03-04T09:14:57.354Z,76.83
2018-03-04T09:17:24.799Z,66.50
2018-03-04T09:19:52.275Z,74.00
2018-03-04T09:22:19.775Z,84.63
2018-03-04T09:24:47.243Z,76.77
2018-03-04T09:27:14.697Z,68.10
2018-03-04T09:29:42.127Z,66.13
2018-03-04T09:32:09.986Z,67.17
2018-03-04T09:34:37.450Z,71.77
2018-03-04T09:37:04.894Z,71.17
2018-03-04T09:39:32.334Z,69.27
2018-03-04T09:41:59.828Z,64.10
2018-03-04T09:44:27.756Z,67.13
2018-03-04T09:46:55.196Z,63.63
2018-03-04T09:49:22.646Z,65.90
2018-03-04T09:51:50.084Z,68.77
2018-03-04T09:54:17.518Z,69.90
2018-03-04T09:56:45.033Z,74.73
2018-03-04T09:59:12.436Z,65.50
2018-03-04T10:01:39.905Z,60.73
2018-03-04T10:04:07.359Z,63.67
2018-03-04T10:06:34.904Z,66.97
2018-03-04T10:09:02.357Z,60.53
2018-03-04T10:11:29.811Z,62.00
2018-03-04T10:13:57.294Z,65.60
2018-03-04T10:16:24.745Z,65.30
2018-03-04T10:18:52.199Z,74.13
2018-03-04T10:21:19.636Z,69.80
2018-03-04T10:23:47.087Z,62.20
2018-03-04T10:26:14.545Z,61.03
2018-03-04T10:28:41.998Z,59.23
2018-03-04T10:31:09.460Z,58.60
2018-03-04T10:33:36.909Z,65.97
2018-03-04T10:36:04.351Z,68.70
2018-03-04T10:38:31.804Z,62.90
2018-03-04T10:40:59.242Z,55.60
2018-03-04T10:43:26.681Z,58.77
2018-03-04T10:45:54.121Z,52.80
2018-03-04T10:48:21.566Z,56.57
2018-03-04T10:50:49.155Z,55.27
2018-03-04T10:53:16.616Z,55.13
2018-03-04T10:55:44.071Z,53.63
2018-03-04T10:58:11.504Z,49.10
2018-03-04T11:00:44.667Z,48.47
2018-03-04T11:03:18.583Z,49.70
2018-03-04T11:05:46.037Z,55.33
2018-03-04T11:08:13.483Z,50.27
2018-03-04T11:10:40.921Z,52.97
2018-03-04T11:13:08.454Z,52.90
2018-03-04T11:15:35.911Z,50.63
2018-03-04T11:18:03.340Z,49.97
2018-03-04T11:20:30.839Z,49.57
2018-03-04T11:22:58.254Z,54.93
2018-03-04T11:25:25.697Z,44.93
2018-03-04T11:27:53.566Z,50.80
2018-03-04T11:30:21.055Z,45.63
2018-03-04T11:32:48.514Z,46.30
2018-03-04T11:35:15.970Z,51.70
2018-03-04T11:37:43.408Z,51.23
2018-03-04T11:40:10.864Z,49.30
2018-03-04T11:42:38.310Z,49.17
2018-03-04T11:45:05.777Z,49.00
2018-03-04T11:47:33.217Z,51.50
2018-03-04T11:50:00.684Z,48.60
2018-03-04T11:52:28.125Z,50.80
2018-03-04T11:54:55.578Z,50.80
2018-03-04T11:57:23.036Z,49.63
2018-03-04T11:59:50.488Z,52.97
2018-03-04T12:02:17.922Z,50.90
2018-03-04T12:04:45.523Z,49.33
2018-03-04T12:07:12.967Z,45.27
2018-03-04T12:09:40.489Z,50.97
2018-03-04T12:12:07.897Z,47.03
2018-03-04T12:14:35.339Z,48.27
2018-03-04T12:17:02.787Z,47.73
2018-03-04T12:19:30.248Z,44.30
2018-03-04T12:21:57.701Z,47.37
2018-03-04T12:24:25.130Z,46.13
2018-03-04T12:26:52.626Z,44.53
2018-03-04T12:29:20.077Z,46.77
2018-03-04T12:31:47.529Z,43.97
2018-03-04T12:34:14.991Z,43.73
2018-03-04T12:36:42.741Z,42.40
2018-03-04T12:39:10.158Z,48.87
2018-03-04T12:41:37.614Z,47.10
2018-03-04T12:44:05.087Z,46.40
2018-03-04T12:46:32.540Z,45.72
2018-03-04T12:49:00.005Z,45.30
2018-03-04T12:51:27.438Z,45.40
2018-03-04T12:53:54.876Z,44.37
2018-03-04T12:56:22.329Z,42.73
2018-03-04T12:58:49.845Z,44.20
2018-03-04T13:01:17.296Z,47.90
2018-03-04T13:03:44.751Z,44.83
2018-03-04T13:06:12.190Z,46.90
2018-03-04T13:08:39.624Z,40.63
2018-03-04T13:11:07.087Z,41.63
2018-03-04T13:13:34.786Z,39.80
2018-03-04T13:16:02.242Z,42.73
2018-03-04T13:18:29.695Z,40.27
2018-03-04T13:20:57.135Z,42.67
2018-03-04T13:23:24.694Z,42.70
2018-03-04T13:25:52.139Z,40.17
2018-03-04T13:28:19.632Z,42.77
2018-03-04T13:30:47.071Z,42.27
2018-03-04T13:33:14.644Z,44.07
2018-03-04T13:35:42.087Z,40.67
2018-03-04T13:38:09.560Z,39.37
2018-03-04T13:40:37.367Z,38.17
2018-03-04T13:43:04.811Z,40.77
2018-03-04T13:45:32.346Z,41.40
2018-03-04T13:47:59.892Z,41.43
2018-03-04T13:50:27.340Z,38.03
2018-03-04T13:52:54.786Z,39.00
2018-03-04T13:55:22.349Z,39.67
2018-03-04T13:57:49.787Z,36.70
2018-03-04T14:00:17.226Z,37.13
2018-03-04T14:02:44.671Z,36.70
2018-03-04T14:05:12.116Z,35.97
2018-03-04T14:07:39.569Z,35.83
2018-03-04T14:10:07.023Z,35.23
2018-03-04T14:12:34.595Z,35.63
2018-03-04T14:15:02.046Z,36.10
2018-03-04T14:17:29.495Z,38.07
2018-03-04T14:19:56.999Z,37.17
2018-03-04T14:22:24.435Z,36.00
2018-03-04T14:24:51.889Z,39.77
2018-03-04T14:27:19.335Z,38.27
2018-03-04T14:29:46.778Z,42.67
2018-03-04T14:32:14.226Z,37.97
2018-03-04T14:34:41.692Z,39.33
2018-03-04T14:37:09.128Z,39.53
2018-03-04T14:39:36.599Z,41.47
2018-03-04T14:42:04.037Z,41.93
2018-03-04T14:44:31.534Z,39.60
2018-03-04T14:46:59.080Z,40.40
2018-03-04T14:49:26.538Z,37.50
2018-03-04T14:51:54.004Z,38.50
2018-03-04T14:54:21.466Z,37.93
2018-03-04T14:56:48.905Z,39.77
2018-03-04T14:59:16.356Z,41.10
2018-03-04T15:01:43.827Z,41.80
2018-03-04T15:04:11.278Z,39.33
2018-03-04T15:06:38.716Z,42.50
2018-03-04T15:09:06.162Z,38.07
2018-03-04T15:11:34.275Z,49.00
2018-03-04T15:14:01.751Z,37.37
2018-03-04T15:16:29.284Z,39.63
2018-03-04T15:18:56.777Z,36.70
2018-03-04T15:21:24.264Z,40.90
2018-03-04T15:23:51.767Z,39.30
2018-03-04T15:26:19.209Z,43.57
2018-03-04T15:28:49.651Z,40.23
2018-03-04T15:31:17.231Z,42.87
2018-03-04T15:33:45.721Z,43.42
2018-03-04T15:36:13.159Z,44.77
2018-03-04T15:38:40.701Z,38.53
2018-03-04T15:41:08.134Z,44.00
2018-03-04T15:43:35.610Z,42.93
2018-03-04T15:46:03.062Z,47.92
2018-03-04T15:48:30.518Z,48.42
2018-03-04T15:50:58.105Z,51.42
2018-03-04T15:53:25.438Z,49.80
2018-03-04T15:55:52.903Z,44.43
2018-03-04T15:58:20.340Z,42.90
2018-03-04T16:00:47.858Z,40.83
2018-03-04T16:03:15.289Z,42.17
2018-03-04T16:05:42.842Z,46.83
2018-03-04T16:08:10.288Z,43.80
2018-03-04T16:10:37.733Z,48.40
2018-03-04T16:13:05.176Z,47.63
2018-03-04T16:15:32.636Z,40.37
2018-03-04T16:18:00.235Z,41.90
2018-03-04T16:20:27.672Z,43.67
2018-03-04T16:22:55.122Z,46.07
2018-03-04T16:25:22.653Z,47.90
2018-03-04T16:27:50.059Z,42.77
2018-03-04T16:30:17.499Z,45.40
2018-03-04T16:32:44.976Z,43.13
2018-03-04T16:35:12.415Z,45.60
2018-03-04T16:37:39.857Z,43.40
2018-03-04T16:40:07.279Z,43.20
2018-03-04T16:42:34.762Z,48.37
2018-03-04T16:45:02.170Z,46.80
2018-03-04T16:47:29.865Z,47.03
2018-03-04T16:49:57.306Z,43.03
2018-03-04T16:52:24.837Z,46.00
2018-03-04T16:54:52.290Z,47.80
2018-03-04T16:57:19.726Z,44.40
2018-03-04T16:59:47.230Z,56.87
2018-03-04T17:02:14.658Z,68.47
2018-03-04T17:04:42.114Z,49.00
2018-03-04T17:07:09.557Z,43.97
2018-03-04T17:09:37.002Z,57.30
2018-03-04T17:12:04.497Z,64.43
2018-03-04T17:14:31.948Z,59.43
2018-03-04T17:16:59.408Z,55.10
2018-03-04T17:19:26.861Z,48.60
2018-03-04T17:21:54.293Z,48.17
2018-03-04T17:24:21.733Z,49.70
2018-03-04T17:26:49.167Z,78.87
2018-03-04T17:29:16.617Z,101.70
2018-03-04T17:31:44.041Z,111.67
2018-03-04T17:34:11.475Z,86.53
2018-03-04T17:36:38.911Z,87.80
2018-03-04T17:39:06.330Z,77.83
2018-03-04T17:41:33.762Z,92.13
2018-03-04T17:44:01.303Z,56.20
2018-03-04T17:46:28.727Z,60.23
2018-03-04T17:48:56.146Z,53.93
2018-03-04T17:51:23.608Z,56.10
2018-03-04T17:53:51.062Z,58.08
2018-03-04T17:56:18.494Z,66.70
2018-03-04T17:58:45.954Z,68.83
2018-03-04T18:01:13.430Z,60.77
2018-03-04T18:03:40.868Z,65.93
2018-03-04T18:06:08.310Z,67.03
2018-03-04T18:08:35.742Z,71.40
2018-03-04T18:11:03.841Z,60.80
2018-03-04T18:13:31.337Z,67.90
2018-03-04T18:15:58.770Z,73.07
2018-03-04T18:18:26.219Z,64.43
2018-03-04T18:20:53.687Z,68.30
2018-03-04T18:23:21.118Z,63.03
2018-03-04T18:25:48.555Z,68.77
2018-03-04T18:28:16.007Z,80.50
2018-03-04T18:30:43.543Z,77.20
2018-03-04T18:33:10.982Z,81.47
2018-03-04T18:35:38.430Z,81.95
2018-03-04T18:38:05.909Z,74.13
2018-03-04T18:40:33.343Z,68.68
2018-03-04T18:43:00.790Z,77.93
2018-03-04T18:45:28.238Z,79.23
2018-03-04T18:47:55.666Z,76.00
2018-03-04T18:50:23.110Z,84.87
2018-03-04T18:52:50.534Z,78.67
2018-03-04T18:55:17.978Z,105.60
2018-03-04T18:57:45.422Z,85.57
2018-03-04T19:00:13.022Z,93.33
2018-03-04T19:02:40.755Z,86.17
2018-03-04T19:05:08.256Z,73.83
2018-03-04T19:07:35.720Z,77.43
2018-03-04T19:10:03.206Z,79.03
2018-03-04T19:12:30.663Z,79.93
2018-03-04T19:14:58.186Z,82.30
2018-03-04T19:17:25.615Z,80.20
2018-03-04T19:19:53.169Z,83.33
2018-03-04T19:22:20.598Z,85.67
2018-03-04T19:24:48.050Z,79.23
2018-03-04T19:27:15.499Z,69.27
2018-03-04T19:29:42.940Z,82.13
2018-03-04T19:32:10.375Z,79.53
2018-03-04T19:34:37.825Z,83.63
2018-03-04T19:37:05.316Z,84.77
2018-03-04T19:39:32.758Z,79.93
2018-03-04T19:42:00.323Z,85.60
2018-03-04T19:44:27.770Z,85.00
2018-03-04T19:46:55.190Z,83.33
2018-03-04T19:49:22.685Z,89.70
2018-03-04T19:51:50.118Z,86.80
2018-03-04T19:54:17.846Z,84.37
2018-03-04T19:56:45.306Z,80.13
2018-03-04T19:59:12.742Z,79.33
2018-03-04T20:01:40.178Z,82.87
2018-03-04T20:04:07.636Z,82.63
2018-03-04T20:06:35.076Z,90.20
2018-03-04T20:09:02.506Z,82.25
2018-03-04T20:11:29.969Z,84.80
2018-03-04T20:13:57.412Z,85.10
2018-03-04T20:16:25.400Z,81.80
2018-03-04T20:18:52.909Z,84.40
2018-03-04T20:21:20.341Z,82.20
2018-03-04T20:23:47.818Z,87.80
2018-03-04T20:26:15.373Z,93.83
2018-03-04T20:28:42.832Z,84.27
2018-03-04T20:31:10.290Z,92.60
2018-03-04T20:33:37.733Z,88.00
2018-03-04T20:36:05.205Z,89.23
2018-03-04T20:38:32.641Z,81.97
2018-03-04T20:41:00.225Z,89.07
2018-03-04T20:43:27.677Z,117.60
2018-03-04T20:45:55.135Z,111.43
2018-03-04T20:48:22.587Z,98.70
2018-03-04T20:50:50.029Z,87.53
2018-03-04T20:53:17.469Z,94.93
2018-03-04T20:55:44.925Z,87.57
2018-03-04T20:58:12.435Z,80.00
2018-03-04T21:00:39.875Z,85.07
2018-03-04T21:03:07.375Z,90.17
2018-03-04T21:05:34.901Z,91.90
2018-03-04T21:08:02.344Z,92.73
2018-03-04T21:10:29.792Z,92.33
2018-03-04T21:12:57.251Z,127.73
2018-03-04T21:15:24.730Z,108.87
2018-03-04T21:17:52.194Z,91.60
2018-03-04T21:20:19.652Z,97.07
2018-03-04T21:22:47.203Z,77.50
2018-03-04T21:25:14.695Z,76.13
2018-03-04T21:27:42.130Z,74.33
2018-03-04T21:30:09.562Z,78.33
2018-03-04T21:32:37.024Z,83.87
2018-03-04T21:35:05.242Z,89.80
2018-03-04T21:37:32.672Z,90.30
2018-03-04T21:40:00.132Z,79.57
2018-03-04T21:42:27.574Z,83.50
2018-03-04T21:44:55.025Z,79.33
2018-03-04T21:47:22.472Z,76.93
2018-03-04T21:49:49.907Z,87.43
2018-03-04T21:52:18.350Z,88.40
2018-03-04T21:54:45.790Z,87.47
2018-03-04T21:57:13.233Z,92.72
2018-03-04T21:59:40.718Z,88.90
2018-03-04T22:02:08.174Z,92.40
2018-03-04T22:04:35.714Z,81.33
2018-03-04T22:07:03.180Z,98.93
2018-03-04T22:09:30.630Z,90.17
2018-03-04T22:11:58.083Z,97.37
2018-03-04T22:14:25.525Z,94.00
2018-03-04T22:16:53.000Z,91.90
2018-03-04T22:19:20.464Z,97.87
2018-03-04T22:21:47.926Z,98.97
2018-03-04T22:24:15.382Z,95.27
2018-03-04T22:26:42.836Z,98.17
2018-03-04T22:29:10.275Z,105.53
2018-03-04T22:31:37.791Z,95.07
2018-03-04T22:34:05.801Z,108.57
2018-03-04T22:36:33.247Z,91.53
2018-03-04T22:39:00.727Z,95.93
2018-03-04T22:41:28.178Z,90.53
2018-03-04T22:43:55.663Z,95.93
2018-03-04T22:46:23.207Z,83.90
2018-03-04T22:48:50.643Z,104.10
2018-03-04T22:51:18.085Z,93.70
2018-03-04T22:53:45.586Z,101.30
2018-03-04T22:56:13.019Z,94.80
2018-03-04T22:58:40.459Z,96.87
2018-03-04T23:01:07.914Z,86.83
2018-03-04T23:03:35.346Z,95.93
2018-03-04T23:06:02.782Z,95.30
2018-03-04T23:08:30.234Z,99.83
2018-03-04T23:10:57.674Z,101.45
2018-03-04T23:13:25.106Z,97.80
2018-03-04T23:15:52.566Z,94.87
2018-03-04T23:18:20.012Z,88.93
2018-03-04T23:20:47.574Z,90.87
2018-03-04T23:23:15.211Z,97.23
2018-03-04T23:25:42.646Z,98.50
2018-03-04T23:28:10.079Z,96.77
2018-03-04T23:30:37.536Z,90.40
2018-03-04T23:33:05.308Z,93.77
2018-03-04T23:35:32.748Z,94.40
2018-03-04T23:38:00.219Z,98.83
2018-03-04T23:40:27.658Z,106.30
2018-03-04T23:42:55.095Z,92.57
2018-03-04T23:45:22.552Z,110.20
2018-03-04T23:47:50.047Z,94.40
2018-03-04T23:50:17.479Z,87.77
2018-03-04T23:52:44.923Z,94.07
2018-03-04T23:55:12.373Z,105.97
2018-03-04T23:57:39.819Z,98.37
